createdAt,value
2023-01-19T00:03:35.179Z,5.90
2023-01-19T00:06:22.388Z,6.35
2023-01-19T00:09:09.518Z,5.75
2023-01-19T00:11:56.637Z,5.82
2023-01-19T00:14:43.721Z,6.50
2023-01-19T00:17:30.884Z,6.13
2023-01-19T00:20:19.201Z,5.72
2023-01-19T00:23:08.380Z,13.27
2023-01-19T00:25:55.531Z,6.90
2023-01-19T00:28:46.028Z,6.22
2023-01-19T00:31:34.191Z,13.50
2023-01-19T00:34:21.272Z,25.98
2023-01-19T00:37:09.427Z,6.85
2023-01-19T00:39:56.560Z,5.80
2023-01-19T00:42:48.481Z,8.43
2023-01-19T00:45:35.767Z,13.05
2023-01-19T00:48:22.871Z,10.13
2023-01-19T00:51:09.965Z,7.85
2023-01-19T00:53:57.088Z,5.30
2023-01-19T00:56:44.174Z,20.23
2023-01-19T00:59:31.261Z,6.45
2023-01-19T01:02:18.635Z,5.97
2023-01-19T01:05:06.807Z,6.13
2023-01-19T01:07:53.946Z,5.50
2023-01-19T01:10:40.997Z,7.60
2023-01-19T01:13:28.384Z,6.80
2023-01-19T01:16:16.523Z,5.07
2023-01-19T01:19:03.807Z,6.40
2023-01-19T01:21:51.351Z,6.55
2023-01-19T01:24:38.458Z,6.40
2023-01-19T01:27:25.564Z,5.80
2023-01-19T01:30:14.445Z,6.13
2023-01-19T01:33:02.344Z,5.50
2023-01-19T01:35:50.586Z,5.88
2023-01-19T01:38:39.256Z,6.28
2023-01-19T01:41:27.688Z,6.50
2023-01-19T01:44:56.943Z,6.38
2023-01-19T01:47:49.929Z,5.97
2023-01-19T01:51:01.686Z,6.78
2023-01-19T01:53:55.562Z,6.63
2023-01-19T01:56:52.067Z,6.60
2023-01-19T01:59:47.823Z,7.10
2023-01-19T02:02:52.297Z,7.10
2023-01-19T02:05:39.944Z,7.40
2023-01-19T02:08:55.662Z,7.30
2023-01-19T02:12:01.828Z,7.32
2023-01-19T02:14:48.882Z,6.93
2023-01-19T02:17:35.968Z,7.30
2023-01-19T02:20:26.441Z,7.50
2023-01-19T02:23:20.976Z,7.35
2023-01-19T02:26:10.828Z,7.30
2023-01-19T02:29:25.444Z,7.13
2023-01-19T02:32:13.038Z,6.85
2023-01-19T02:35:00.231Z,7.18
2023-01-19T02:37:48.212Z,7.03
2023-01-19T02:40:37.116Z,7.32
2023-01-19T02:43:25.329Z,7.50
2023-01-19T02:46:14.023Z,7.63
2023-01-19T02:49:01.750Z,7.60
2023-01-19T02:51:49.262Z,7.05
2023-01-19T02:54:46.947Z,7.85
2023-01-19T02:57:33.971Z,8.50
2023-01-19T03:00:49.406Z,8.90
2023-01-19T03:03:58.499Z,8.45
2023-01-19T03:06:54.173Z,8.45
2023-01-19T03:09:51.095Z,8.48
2023-01-19T03:12:41.488Z,8.27
2023-01-19T03:15:47.075Z,8.38
2023-01-19T03:18:37.335Z,8.15
2023-01-19T03:24:16.653Z,8.23
2023-01-19T03:27:12.259Z,9.00
2023-01-19T03:30:08.102Z,8.88
2023-01-19T03:33:01.584Z,8.98
2023-01-19T03:35:54.276Z,9.30
2023-01-19T03:38:43.330Z,9.30
2023-01-19T03:41:32.755Z,9.93
2023-01-19T03:44:19.848Z,9.07
2023-01-19T03:47:09.983Z,9.23
2023-01-19T03:49:58.479Z,10.20
2023-01-19T03:52:45.555Z,9.73
2023-01-19T03:55:33.501Z,9.85
2023-01-19T03:58:22.248Z,10.75
2023-01-19T04:01:09.711Z,9.82
2023-01-19T04:03:56.958Z,9.70
2023-01-19T04:06:44.283Z,10.82
2023-01-19T04:09:31.316Z,10.57
2023-01-19T04:12:18.391Z,10.63
2023-01-19T04:15:06.726Z,10.18
2023-01-19T04:17:53.780Z,10.82
2023-01-19T04:20:40.898Z,11.23
2023-01-19T04:23:28.523Z,11.70
2023-01-19T04:26:15.947Z,11.57
2023-01-19T04:29:03.111Z,11.40
2023-01-19T04:31:50.183Z,11.13
2023-01-19T04:34:37.285Z,11.93
2023-01-19T04:37:24.502Z,12.93
2023-01-19T04:40:12.373Z,12.10
2023-01-19T04:42:59.770Z,12.73
2023-01-19T04:45:47.677Z,11.68
2023-01-19T04:48:35.820Z,12.93
2023-01-19T04:51:22.954Z,11.98
2023-01-19T04:54:10.372Z,12.23
2023-01-19T04:56:57.967Z,12.10
2023-01-19T04:59:45.074Z,11.75
2023-01-19T05:02:32.397Z,12.23
2023-01-19T05:05:19.697Z,12.30
2023-01-19T05:08:06.774Z,13.13
2023-01-19T05:10:53.864Z,12.13
2023-01-19T05:13:40.943Z,12.82
2023-01-19T05:16:28.104Z,12.02
2023-01-19T05:19:15.622Z,12.15
2023-01-19T05:22:04.296Z,12.38
2023-01-19T05:24:51.368Z,13.10
2023-01-19T05:27:38.814Z,12.52
2023-01-19T05:30:26.002Z,13.48
2023-01-19T05:33:13.076Z,13.65
2023-01-19T05:36:00.321Z,13.25
2023-01-19T05:38:47.358Z,13.93
2023-01-19T05:41:34.600Z,12.70
2023-01-19T05:44:22.352Z,12.57
2023-01-19T05:47:09.483Z,15.00
2023-01-19T05:49:56.618Z,13.32
2023-01-19T05:52:43.773Z,13.60
2023-01-19T05:55:30.894Z,12.13
2023-01-19T05:58:17.964Z,13.95
2023-01-19T06:01:10.284Z,14.50
2023-01-19T06:03:57.596Z,13.80
2023-01-19T06:06:45.109Z,15.35
2023-01-19T06:09:32.727Z,14.70
2023-01-19T06:12:19.918Z,14.48
2023-01-19T06:15:07.622Z,13.77
2023-01-19T06:17:54.701Z,14.15
2023-01-19T06:20:41.722Z,15.05
2023-01-19T06:23:31.595Z,13.93
2023-01-19T06:26:18.710Z,15.15
2023-01-19T06:29:05.869Z,14.70
2023-01-19T06:31:53.224Z,14.95
2023-01-19T06:34:43.846Z,15.05
2023-01-19T06:37:31.707Z,14.75
2023-01-19T06:40:18.976Z,14.23
2023-01-19T06:43:09.628Z,15.23
2023-01-19T06:45:57.378Z,13.98
2023-01-19T06:48:44.530Z,14.20
2023-01-19T06:51:31.660Z,15.30
2023-01-19T06:54:18.696Z,15.10
2023-01-19T06:57:05.893Z,15.20
2023-01-19T06:59:52.991Z,15.30
2023-01-19T07:02:43.667Z,15.63
2023-01-19T07:05:30.799Z,16.15
2023-01-19T07:08:18.130Z,15.73
2023-01-19T07:11:25.006Z,15.55
2023-01-19T07:14:14.471Z,16.05
2023-01-19T07:17:03.125Z,14.98
2023-01-19T07:19:50.288Z,15.00
2023-01-19T07:25:13.023Z,16.38
2023-01-19T07:28:00.425Z,16.13
2023-01-19T07:30:51.518Z,16.02
2023-01-19T07:33:38.636Z,16.35
2023-01-19T07:36:25.915Z,16.15
2023-01-19T07:39:13.381Z,16.42
2023-01-19T07:42:00.507Z,15.35
2023-01-19T07:44:47.691Z,15.73
2023-01-19T07:47:34.773Z,16.77
2023-01-19T07:50:24.688Z,16.00
2023-01-19T07:53:12.096Z,16.13
2023-01-19T07:55:59.194Z,16.13
2023-01-19T07:58:47.202Z,17.38
2023-01-19T08:01:34.435Z,17.15
2023-01-19T08:04:21.857Z,17.30
2023-01-19T08:07:09.775Z,16.67
2023-01-19T08:09:56.843Z,18.73
2023-01-19T08:12:43.956Z,18.25
2023-01-19T08:15:30.995Z,17.70
2023-01-19T08:18:18.737Z,18.98
2023-01-19T08:21:06.043Z,17.13
2023-01-19T08:23:57.756Z,20.20
2023-01-19T08:26:44.825Z,17.90
2023-01-19T08:29:32.098Z,18.42
2023-01-19T08:32:19.204Z,18.25
2023-01-19T08:35:07.056Z,19.50
2023-01-19T08:37:54.064Z,18.30
2023-01-19T08:40:42.168Z,17.33
2023-01-19T08:43:29.210Z,17.65
2023-01-19T08:46:17.758Z,18.30
2023-01-19T08:49:04.891Z,17.92
2023-01-19T08:51:51.956Z,18.30
2023-01-19T08:54:38.970Z,17.55
2023-01-19T08:57:27.451Z,17.48
2023-01-19T09:00:15.099Z,18.25
2023-01-19T09:03:04.300Z,17.13
2023-01-19T09:05:51.702Z,17.90
2023-01-19T09:08:39.369Z,16.58
2023-01-19T09:11:27.634Z,16.60
2023-01-19T09:14:14.704Z,16.45
2023-01-19T09:17:01.773Z,16.63
2023-01-19T09:19:49.000Z,17.23
2023-01-19T09:22:36.318Z,15.80
2023-01-19T09:25:23.969Z,15.48
2023-01-19T09:28:14.707Z,14.45
2023-01-19T09:31:07.048Z,15.75
2023-01-19T09:33:54.102Z,14.68
2023-01-19T09:36:41.215Z,15.32
2023-01-19T09:39:28.322Z,14.90
2023-01-19T09:42:33.145Z,15.85
2023-01-19T09:45:33.335Z,14.48
2023-01-19T09:51:14.030Z,14.88
2023-01-19T09:54:16.445Z,13.02
2023-01-19T09:57:09.982Z,14.50
2023-01-19T09:59:59.950Z,14.20
2023-01-19T10:03:04.446Z,13.63
2023-01-19T10:06:08.715Z,13.43
2023-01-19T10:09:13.762Z,13.38
2023-01-19T10:12:22.165Z,14.30
2023-01-19T10:15:33.130Z,12.88
2023-01-19T10:18:31.168Z,12.73
2023-01-19T10:21:38.155Z,13.07
2023-01-19T10:24:34.979Z,12.52
2023-01-19T10:27:29.524Z,13.63
2023-01-19T10:30:23.840Z,14.00
2023-01-19T10:33:13.849Z,11.98
2023-01-19T10:36:16.376Z,13.38
2023-01-19T10:39:07.630Z,12.48
2023-01-19T10:41:54.763Z,12.90
2023-01-19T10:44:42.186Z,12.32
2023-01-19T10:47:36.878Z,12.48
2023-01-19T10:50:33.110Z,12.38
2023-01-19T10:53:23.187Z,13.00
2023-01-19T10:56:37.504Z,12.55
2023-01-19T10:59:32.283Z,12.02
2023-01-19T11:02:22.478Z,11.85
2023-01-19T11:05:28.019Z,12.43
2023-01-19T11:08:23.804Z,10.93
2023-01-19T11:11:12.636Z,11.32
2023-01-19T11:14:09.282Z,11.23
2023-01-19T11:16:58.460Z,11.65
2023-01-19T11:19:55.003Z,10.82
2023-01-19T11:22:42.170Z,10.85
2023-01-19T11:25:32.968Z,10.88
2023-01-19T11:28:28.355Z,9.88
2023-01-19T11:31:15.529Z,10.38
2023-01-19T11:34:23.346Z,11.02
2023-01-19T11:37:16.263Z,9.73
2023-01-19T11:40:08.630Z,9.88
2023-01-19T11:42:55.812Z,10.45
2023-01-19T11:45:44.569Z,10.40
2023-01-19T11:48:40.589Z,9.63
2023-01-19T11:51:52.247Z,9.90
2023-01-19T11:54:52.411Z,9.70
2023-01-19T12:00:41.418Z,8.95
2023-01-19T12:03:35.179Z,8.32
2023-01-19T12:06:33.300Z,8.77
2023-01-19T12:09:24.341Z,8.90
2023-01-19T12:12:32.505Z,8.88
2023-01-19T12:15:44.595Z,8.48
2023-01-19T12:18:41.306Z,8.30
2023-01-19T12:21:28.842Z,7.85
2023-01-19T12:24:37.742Z,8.45
2023-01-19T12:27:41.159Z,7.22
2023-01-19T12:30:29.840Z,8.05
2023-01-19T12:33:26.822Z,8.65
2023-01-19T12:36:16.837Z,8.98
2023-01-19T12:39:18.455Z,7.90
2023-01-19T12:42:14.981Z,8.50
2023-01-19T12:45:17.828Z,8.30
2023-01-19T12:48:07.073Z,9.65
2023-01-19T12:50:54.258Z,10.23
2023-01-19T12:53:55.192Z,11.70
2023-01-19T12:56:42.526Z,11.38
2023-01-19T12:59:31.404Z,12.43
2023-01-19T13:02:18.617Z,13.15
2023-01-19T13:05:17.002Z,13.15
2023-01-19T13:08:07.894Z,13.48
2023-01-19T13:11:05.577Z,14.02
2023-01-19T13:13:58.945Z,13.65
2023-01-19T13:16:58.552Z,12.82
2023-01-19T13:19:52.340Z,14.50
2023-01-19T13:23:08.233Z,13.13
2023-01-19T13:26:05.077Z,13.27
2023-01-19T13:28:58.219Z,13.55
2023-01-19T13:31:49.088Z,13.10
2023-01-19T13:34:42.734Z,12.38
2023-01-19T13:37:39.145Z,12.93
2023-01-19T13:40:34.329Z,12.57
2023-01-19T13:43:37.794Z,11.75
2023-01-19T13:46:27.325Z,12.80
2023-01-19T13:49:21.526Z,12.70
2023-01-19T13:52:20.016Z,12.70
2023-01-19T13:55:14.460Z,12.13
2023-01-19T13:58:02.189Z,12.23
2023-01-19T14:00:49.894Z,12.00
2023-01-19T14:03:37.123Z,11.95
2023-01-19T14:06:34.145Z,11.77
2023-01-19T14:09:21.686Z,11.93
2023-01-19T14:12:12.143Z,11.90
2023-01-19T14:14:59.300Z,11.63
2023-01-19T14:18:10.056Z,10.57
2023-01-19T14:21:09.216Z,10.70
2023-01-19T14:24:10.762Z,11.43
2023-01-19T14:27:20.918Z,10.70
2023-01-19T14:30:21.794Z,10.88
2023-01-19T14:33:35.583Z,11.20
2023-01-19T14:36:34.265Z,11.32
2023-01-19T14:39:24.687Z,11.13
2023-01-19T14:42:17.645Z,11.35
2023-01-19T14:45:16.254Z,11.10
2023-01-19T14:48:12.214Z,11.55
2023-01-19T14:51:04.970Z,10.63
2023-01-19T14:53:57.957Z,10.00
2023-01-19T14:56:45.849Z,10.93
2023-01-19T14:59:33.080Z,16.38
2023-01-19T15:02:20.368Z,11.27
2023-01-19T15:05:08.928Z,15.63
2023-01-19T15:07:56.298Z,11.65
2023-01-19T15:10:44.385Z,11.30
2023-01-19T15:13:31.498Z,11.02
2023-01-19T15:16:19.268Z,11.43
2023-01-19T15:19:06.401Z,11.10
2023-01-19T15:21:53.751Z,11.25
2023-01-19T15:24:41.145Z,11.27
2023-01-19T15:27:28.421Z,10.88
2023-01-19T15:30:21.751Z,10.43
2023-01-19T15:33:21.461Z,10.90
2023-01-19T15:36:18.059Z,11.50
2023-01-19T15:39:05.676Z,11.70
2023-01-19T15:41:53.271Z,9.98
2023-01-19T15:44:40.346Z,10.45
2023-01-19T15:47:27.545Z,11.50
2023-01-19T15:50:14.680Z,11.07
2023-01-19T15:53:01.991Z,10.73
2023-01-19T15:55:51.469Z,10.90
2023-01-19T15:58:38.649Z,11.32
2023-01-19T16:01:31.817Z,11.82
2023-01-19T16:04:19.073Z,11.75
2023-01-19T16:07:06.295Z,11.35
2023-01-19T16:09:53.360Z,11.82
2023-01-19T16:12:40.701Z,11.70
2023-01-19T16:15:27.910Z,11.60
2023-01-19T16:18:15.430Z,12.57
2023-01-19T16:21:02.508Z,13.18
2023-01-19T16:23:50.064Z,12.07
2023-01-19T16:26:37.197Z,12.63
2023-01-19T16:29:24.475Z,12.07
2023-01-19T16:32:11.721Z,12.60
2023-01-19T16:34:58.976Z,14.18
2023-01-19T16:37:51.524Z,13.27
2023-01-19T16:40:39.991Z,12.57
2023-01-19T16:43:28.353Z,31.58
2023-01-19T16:46:21.481Z,14.95
2023-01-19T16:49:18.026Z,14.35
2023-01-19T16:52:06.202Z,14.85
2023-01-19T16:54:55.084Z,12.70
2023-01-19T16:57:42.452Z,13.23
2023-01-19T17:00:29.944Z,12.50
2023-01-19T17:03:17.475Z,12.18
2023-01-19T17:06:07.403Z,14.80
2023-01-19T17:08:54.751Z,13.63
2023-01-19T17:11:43.043Z,13.00
2023-01-19T17:14:30.469Z,12.95
2023-01-19T17:17:18.165Z,15.05
2023-01-19T17:20:07.675Z,12.63
2023-01-19T17:22:56.603Z,11.88
2023-01-19T17:25:43.784Z,12.68
2023-01-19T17:28:31.664Z,12.38
2023-01-19T17:31:22.350Z,11.32
2023-01-19T17:34:11.339Z,11.30
2023-01-19T17:37:03.453Z,12.07
2023-01-19T17:39:51.605Z,12.05
2023-01-19T17:42:41.274Z,11.93
2023-01-19T17:45:29.142Z,10.93
2023-01-19T17:48:17.801Z,10.60
2023-01-19T17:51:07.321Z,10.77
2023-01-19T17:53:55.829Z,11.60
2023-01-19T17:56:43.662Z,11.25
2023-01-19T17:59:33.247Z,11.15
2023-01-19T18:02:24.916Z,11.45
2023-01-19T18:05:13.294Z,11.20
2023-01-19T18:08:00.932Z,11.15
2023-01-19T18:10:56.131Z,10.45
2023-01-19T18:13:46.849Z,10.93
2023-01-19T18:16:35.386Z,10.38
2023-01-19T18:19:23.539Z,10.43
2023-01-19T18:22:11.872Z,10.73
2023-01-19T18:25:00.029Z,11.50
2023-01-19T18:27:48.678Z,11.70
2023-01-19T18:30:37.506Z,11.15
2023-01-19T18:33:26.522Z,11.15
2023-01-19T18:36:15.460Z,10.85
2023-01-19T18:39:04.902Z,10.90
2023-01-19T18:41:54.203Z,10.48
2023-01-19T18:44:42.214Z,10.82
2023-01-19T18:47:29.830Z,10.25
2023-01-19T18:50:20.480Z,9.88
2023-01-19T18:53:08.287Z,10.38
2023-01-19T18:55:58.162Z,10.45
2023-01-19T18:58:46.659Z,9.60
2023-01-19T19:01:35.978Z,10.32
2023-01-19T19:04:24.190Z,9.65
2023-01-19T19:07:12.351Z,10.43
2023-01-19T19:10:00.681Z,9.15
2023-01-19T19:12:48.788Z,9.30
2023-01-19T19:15:37.365Z,9.50
2023-01-19T19:18:25.105Z,9.82
2023-01-19T19:21:12.970Z,9.80
2023-01-19T19:24:01.076Z,9.75
2023-01-19T19:26:49.180Z,9.10
2023-01-19T19:29:38.080Z,9.95
2023-01-19T19:32:25.814Z,9.05
2023-01-19T19:35:15.961Z,9.07
2023-01-19T19:38:05.229Z,9.50
2023-01-19T19:40:55.186Z,10.25
2023-01-19T19:43:43.775Z,9.05
2023-01-19T19:46:31.896Z,9.77
2023-01-19T19:49:22.125Z,10.05
2023-01-19T19:54:58.150Z,9.30
2023-01-19T19:57:46.145Z,9.98
2023-01-19T20:00:34.199Z,10.38
2023-01-19T20:03:22.460Z,10.90
2023-01-19T20:06:14.401Z,9.90
2023-01-19T20:09:02.135Z,9.82
2023-01-19T20:11:50.720Z,10.93
2023-01-19T20:14:42.010Z,9.80
2023-01-19T20:17:30.604Z,9.20
2023-01-19T20:20:18.959Z,10.60
2023-01-19T20:23:06.800Z,10.65
2023-01-19T20:25:54.425Z,10.60
2023-01-19T20:28:45.210Z,10.70
2023-01-19T20:31:35.951Z,10.80
2023-01-19T20:34:28.142Z,11.00
2023-01-19T20:37:15.944Z,10.95
2023-01-19T20:40:04.632Z,10.88
2023-01-19T20:42:52.641Z,12.27
2023-01-19T20:45:40.175Z,11.27
2023-01-19T20:48:28.200Z,11.75
2023-01-19T20:51:16.512Z,10.60
2023-01-19T20:54:05.036Z,11.57
2023-01-19T20:56:52.826Z,12.82
2023-01-19T20:59:41.402Z,9.70
2023-01-19T21:02:29.496Z,11.90
2023-01-19T21:05:17.410Z,11.48
2023-01-19T21:08:05.666Z,10.73
2023-01-19T21:10:56.731Z,10.95
2023-01-19T21:13:43.868Z,10.27
2023-01-19T21:16:33.618Z,10.98
2023-01-19T21:19:20.992Z,12.40
2023-01-19T21:22:08.122Z,11.82
2023-01-19T21:24:55.318Z,11.20
2023-01-19T21:27:42.959Z,11.70
2023-01-19T21:30:30.175Z,18.75
2023-01-19T21:33:18.115Z,14.32
2023-01-19T21:36:05.694Z,20.90
2023-01-19T21:38:55.573Z,14.05
2023-01-19T21:41:43.893Z,29.95
2023-01-19T21:44:34.160Z,21.60
2023-01-19T21:47:21.549Z,16.95
2023-01-19T21:50:09.340Z,14.57
2023-01-19T21:52:57.331Z,18.88
2023-01-19T21:55:45.738Z,11.45
2023-01-19T21:58:32.821Z,10.50
2023-01-19T22:01:20.940Z,11.77
2023-01-19T22:04:08.167Z,16.00
2023-01-19T22:06:55.206Z,12.07
2023-01-19T22:09:42.328Z,11.70
2023-01-19T22:12:29.531Z,11.77
2023-01-19T22:15:16.706Z,11.70
2023-01-19T22:18:04.451Z,10.90
2023-01-19T22:20:51.467Z,11.75
2023-01-19T22:23:39.257Z,11.90
2023-01-19T22:26:28.127Z,10.98
2023-01-19T22:29:15.294Z,11.20
2023-01-19T22:32:02.411Z,11.10
2023-01-19T22:34:49.535Z,10.50
2023-01-19T22:37:37.254Z,10.93
2023-01-19T22:40:24.317Z,9.80
2023-01-19T22:43:11.424Z,11.50
2023-01-19T22:45:59.213Z,10.90
2023-01-19T22:48:47.726Z,9.20
2023-01-19T22:51:35.757Z,10.45
2023-01-19T22:54:23.350Z,10.38
2023-01-19T22:57:11.976Z,11.18
2023-01-19T22:59:59.251Z,9.95
2023-01-19T23:02:46.483Z,10.68
2023-01-19T23:05:37.177Z,11.35
2023-01-19T23:08:24.913Z,10.82
2023-01-19T23:11:15.619Z,11.23
2023-01-19T23:14:03.928Z,11.15
2023-01-19T23:16:51.222Z,10.48
2023-01-19T23:19:38.334Z,10.10
2023-01-19T23:22:25.581Z,11.45
2023-01-19T23:25:12.857Z,11.10
2023-01-19T23:27:59.986Z,11.85
2023-01-19T23:30:47.190Z,11.70
2023-01-19T23:33:34.282Z,11.98
2023-01-19T23:36:22.977Z,11.35
2023-01-19T23:39:28.414Z,10.90
2023-01-19T23:42:15.519Z,11.95
2023-01-19T23:45:02.698Z,12.05
2023-01-19T23:47:49.864Z,11.90
2023-01-19T23:50:40.775Z,12.15
2023-01-19T23:53:27.828Z,11.82
2023-01-19T23:56:17.514Z,12.10
2023-01-19T23:59:07.401Z,12.40
